Marine Rouge — JG5115 — position and weather

sailwx.info

Track history (hours):
 
Tides and Currents Weather Stations Pressure Air Temp Water Temp Dewpoint Dewpoint Depression Visibility Wind Speed Wind Dir Waves Ship Positions

Marine Rouge

Last reported at 2016-Dec-04 11:33 UTC. Time now 2016-Dec-04 14:23 UTC.
Position N 35°28' E 139°40'.

Length 52 m; draft 2.8 m.

Type: Passenger vessel. MMSI: 431000518.

Date/timePositionNaut miles runAvg speedWind from/ knotsBaromVisibWave heightAir tempDewpointWater temp
2016-Dec-04 11:33N 35°28' E 139°40'1 1.1
2016-Dec-04 10:33N 35°27' E 139°39'1 0.7
2016-Dec-04 09:33N 35°27' E 139°39'1 0.8
2016-Dec-04 08:33N 35°27' E 139°40'1 0.8
2016-Dec-04 07:33N 35°27' E 139°39'1 0.5
2016-Dec-04 06:33N 35°27' E 139°39'0 0.1
2016-Dec-04 05:34N 35°27' E 139°39'0 0.1
2016-Dec-04 04:33N 35°27' E 139°39'0 0.5
2016-Dec-04 03:34N 35°27' E 139°39'1 0.5
2016-Dec-04 02:33N 35°27' E 139°39'0 0.0
2016-Dec-04 01:33N 35°27' E 139°39'0 0.0
2016-Dec-04 00:33N 35°27' E 139°39'0 0.0
2016-Dec-03 12:34N 35°27' E 139°39'1 1.5
2016-Dec-03 11:34N 35°28' E 139°40'1 1.0
2016-Dec-03 10:34N 35°27' E 139°39'1 0.6
2016-Dec-03 09:34N 35°27' E 139°39'0 0.0
2016-Dec-03 08:34N 35°27' E 139°39'1 0.8
2016-Dec-03 07:34N 35°27' E 139°40'1 0.8
2016-Dec-03 06:33N 35°27' E 139°39'0 0.1
2016-Dec-03 05:34N 35°27' E 139°39'0 0.1
2016-Dec-03 04:34N 35°27' E 139°39'1 0.5
2016-Dec-03 03:34N 35°27' E 139°39'1 0.5
2016-Dec-03 02:34N 35°27' E 139°39'0 0.0
2016-Dec-03 01:33N 35°27' E 139°39'0 0.0
2016-Dec-03 00:33N 35°27' E 139°39'1 0.1
2016-Dec-02 11:33N 35°28' E 139°40'1 0.5
2016-Dec-02 10:33N 35°27' E 139°39'1 0.6
2016-Dec-02 09:33N 35°27' E 139°39'0 0.0
2016-Dec-02 08:33N 35°27' E 139°39'1 0.5
2016-Dec-02 07:34N 35°27' E 139°39'1 0.5
2016-Dec-02 06:34N 35°27' E 139°39'0 0.1
2016-Dec-02 05:34N 35°27' E 139°39'0 0.1
2016-Dec-02 04:34N 35°27' E 139°39'1 0.6
2016-Dec-02 03:33N 35°27' E 139°39'1 0.6
2016-Dec-02 02:34N 35°27' E 139°39'0 0.0
2016-Dec-02 01:33N 35°27' E 139°39'1 0.1
2016-Dec-01 11:33N 35°28' E 139°40'1 0.6
2016-Dec-01 10:34N 35°27' E 139°39'1 0.6
2016-Dec-01 09:33N 35°27' E 139°39'0 0.0
2016-Dec-01 08:33N 35°27' E 139°39'1 0.6
2016-Dec-01 07:33N 35°27' E 139°39'1 0.6
2016-Dec-01 06:33N 35°27' E 139°39'0 0.1
2016-Dec-01 05:33N 35°27' E 139°39'0 0.1
2016-Dec-01 04:33N 35°27' E 139°39'1 0.6
2016-Dec-01 03:33N 35°27' E 139°39'1 0.6
2016-Dec-01 02:34N 35°27' E 139°39'0 0.0
2016-Dec-01 01:34N 35°27' E 139°39'0 0.0
2016-Dec-01 00:33N 35°27' E 139°39'1 0.1
2016-Nov-30 11:33N 35°28' E 139°40'1 0.8
2016-Nov-30 10:33N 35°27' E 139°39'1 0.6
2016-Nov-30 09:33N 35°27' E 139°39'0 0.0
2016-Nov-30 08:33N 35°27' E 139°39'1 0.6
2016-Nov-30 07:34N 35°27' E 139°39'1 0.6
2016-Nov-30 06:33N 35°27' E 139°39'0 0.1
2016-Nov-30 05:33N 35°27' E 139°39'0 0.4
2016-Nov-30 04:33N 35°27' E 139°39'0 0.1
2016-Nov-30 03:34N 35°27' E 139°39'1 0.6
2016-Nov-30 02:33N 35°27' E 139°39'0 0.0
2016-Nov-30 01:33N 35°27' E 139°39'0 0.0
2016-Nov-30 00:33N 35°27' E 139°39'0 0.0
2016-Nov-29 23:33N 35°27' E 139°39'0 0.0
2016-Nov-29 12:32N 35°27' E 139°39'2 2.4
2016-Nov-29 11:33N 35°28' E 139°41'2 2.2
2016-Nov-29 10:33N 35°27' E 139°39'1 0.6
2016-Nov-29 09:33N 35°27' E 139°39'3 2.9
2016-Nov-29 08:33N 35°28' E 139°42'3 3.0
2016-Nov-29 07:33N 35°27' E 139°39'1 0.5
2016-Nov-29 06:33N 35°27' E 139°39'0 0.1
2016-Nov-29 05:33N 35°27' E 139°39'0 0.2
2016-Nov-29 04:33N 35°27' E 139°39'0 0.4
2016-Nov-29 03:33N 35°27' E 139°39'1 0.5
2016-Nov-29 02:33N 35°27' E 139°39'0 0.0
2016-Nov-29 01:33N 35°27' E 139°39'0 0.0
2016-Nov-29 00:33N 35°27' E 139°39'0 0.0
2016-Nov-28 12:33N 35°27' E 139°39'2 1.6
2016-Nov-28 11:33N 35°28' E 139°40'1 1.1
2016-Nov-28 10:33N 35°27' E 139°39'1 0.7
2016-Nov-28 09:33N 35°27' E 139°39'0 0.0
2016-Nov-28 08:33N 35°27' E 139°39'3 2.9
2016-Nov-28 07:33N 35°27' E 139°43'3 2.9
2016-Nov-28 06:33N 35°27' E 139°39'0 0.1
2016-Nov-28 05:33N 35°27' E 139°39'0 0.1
2016-Nov-28 04:33N 35°27' E 139°39'0 0.4
2016-Nov-28 03:33N 35°27' E 139°39'1 0.7
2016-Nov-28 02:33N 35°27' E 139°39'0 0.0
2016-Nov-28 01:33N 35°27' E 139°39'0 0.0
2016-Nov-28 00:33N 35°27' E 139°39'0 0.0
2016-Nov-27 12:34N 35°27' E 139°39'1 0.9
2016-Nov-27 11:34N 35°28' E 139°39'1 0.5
2016-Nov-27 10:34N 35°27' E 139°39'1 0.5
2016-Nov-27 09:33N 35°27' E 139°39'2 2.1
2016-Nov-27 08:33N 35°28' E 139°41'2 1.9
2016-Nov-27 07:33N 35°27' E 139°39'1 0.5
2016-Nov-27 06:34N 35°27' E 139°39'0 0.1
2016-Nov-27 05:34N 35°27' E 139°39'0 0.1
2016-Nov-27 04:34N 35°27' E 139°39'1 0.5
2016-Nov-27 03:34N 35°27' E 139°39'1 0.5
2016-Nov-27 02:34N 35°27' E 139°39'0 0.0
2016-Nov-27 01:34N 35°27' E 139°39'0 0.0
2016-Nov-27 00:34N 35°27' E 139°39'0 0.0
2016-Nov-26 11:31N 35°27' E 139°39'1 1.5
2016-Nov-26 10:34N 35°28' E 139°40'3 3.1
2016-Nov-26 09:34N 35°25' E 139°42'3 2.5
2016-Nov-26 08:33N 35°27' E 139°39'0 0.0
2016-Nov-26 07:33N 35°27' E 139°39'0 0.0
2016-Nov-26 06:33N 35°27' E 139°39'0 0.1
2016-Nov-26 05:34N 35°27' E 139°39'0 0.1
2016-Nov-26 04:33N 35°27' E 139°39'1 0.5
2016-Nov-26 03:33N 35°27' E 139°39'3 3.1
2016-Nov-26 02:33N 35°27' E 139°43'3 3.0
2016-Nov-26 01:33N 35°28' E 139°39'1 0.8
2016-Nov-26 00:33N 35°27' E 139°39'0 0.0
2016-Nov-25 23:33N 35°27' E 139°39'0 0.0
2016-Nov-25 22:33N 35°27' E 139°39'0 0.0
2016-Nov-25 12:33N 35°27' E 139°39'1 0.8
2016-Nov-25 11:33N 35°28' E 139°39'0 0.4
2016-Nov-25 10:33N 35°27' E 139°39'1 0.6
2016-Nov-25 09:33N 35°27' E 139°39'0 0.0
2016-Nov-25 08:33N 35°27' E 139°39'1 0.5
2016-Nov-25 07:34N 35°27' E 139°39'1 0.5
2016-Nov-25 06:33N 35°27' E 139°39'0 0.0
2016-Nov-25 05:34N 35°27' E 139°39'1 0.9
2016-Nov-25 04:33N 35°28' E 139°40'1 0.9
2016-Nov-25 03:33N 35°27' E 139°39'1 0.5
2016-Nov-25 02:33N 35°27' E 139°39'0 0.0
2016-Nov-25 01:33N 35°27' E 139°39'  
Track history (hours):
 
Tides and Currents Weather Stations Pressure Air Temp Water Temp Dewpoint Dewpoint Depression Visibility Wind Speed Wind Dir Waves Ship Positions

Marine Rouge

Last reported at 2016-Dec-04 11:33 UTC. Time now 2016-Dec-04 14:23 UTC.
Position N 35°28' E 139°40'.

Length 52 m; draft 2.8 m.

Type: Passenger vessel. MMSI: 431000518.

Date/timePositionNaut miles runAvg speedWind from/ knotsBaromVisibWave heightAir tempDewpointWater temp
2016-Dec-04 11:33N 35°28' E 139°40'1 1.1
2016-Dec-04 10:33N 35°27' E 139°39'1 0.7
2016-Dec-04 09:33N 35°27' E 139°39'1 0.8
2016-Dec-04 08:33N 35°27' E 139°40'1 0.8
2016-Dec-04 07:33N 35°27' E 139°39'1 0.5
2016-Dec-04 06:33N 35°27' E 139°39'0 0.1
2016-Dec-04 05:34N 35°27' E 139°39'0 0.1
2016-Dec-04 04:33N 35°27' E 139°39'0 0.5
2016-Dec-04 03:34N 35°27' E 139°39'1 0.5
2016-Dec-04 02:33N 35°27' E 139°39'0 0.0
2016-Dec-04 01:33N 35°27' E 139°39'0 0.0
2016-Dec-04 00:33N 35°27' E 139°39'0 0.0
2016-Dec-03 12:34N 35°27' E 139°39'1 1.5
2016-Dec-03 11:34N 35°28' E 139°40'1 1.0
2016-Dec-03 10:34N 35°27' E 139°39'1 0.6
2016-Dec-03 09:34N 35°27' E 139°39'0 0.0
2016-Dec-03 08:34N 35°27' E 139°39'1 0.8
2016-Dec-03 07:34N 35°27' E 139°40'1 0.8
2016-Dec-03 06:33N 35°27' E 139°39'0 0.1
2016-Dec-03 05:34N 35°27' E 139°39'0 0.1
2016-Dec-03 04:34N 35°27' E 139°39'1 0.5
2016-Dec-03 03:34N 35°27' E 139°39'1 0.5
2016-Dec-03 02:34N 35°27' E 139°39'0 0.0
2016-Dec-03 01:33N 35°27' E 139°39'0 0.0
2016-Dec-03 00:33N 35°27' E 139°39'1 0.1
2016-Dec-02 11:33N 35°28' E 139°40'1 0.5
2016-Dec-02 10:33N 35°27' E 139°39'1 0.6
2016-Dec-02 09:33N 35°27' E 139°39'0 0.0
2016-Dec-02 08:33N 35°27' E 139°39'1 0.5
2016-Dec-02 07:34N 35°27' E 139°39'1 0.5
2016-Dec-02 06:34N 35°27' E 139°39'0 0.1
2016-Dec-02 05:34N 35°27' E 139°39'0 0.1
2016-Dec-02 04:34N 35°27' E 139°39'1 0.6
2016-Dec-02 03:33N 35°27' E 139°39'1 0.6
2016-Dec-02 02:34N 35°27' E 139°39'0 0.0
2016-Dec-02 01:33N 35°27' E 139°39'1 0.1
2016-Dec-01 11:33N 35°28' E 139°40'1 0.6
2016-Dec-01 10:34N 35°27' E 139°39'1 0.6
2016-Dec-01 09:33N 35°27' E 139°39'0 0.0
2016-Dec-01 08:33N 35°27' E 139°39'1 0.6
2016-Dec-01 07:33N 35°27' E 139°39'1 0.6
2016-Dec-01 06:33N 35°27' E 139°39'0 0.1
2016-Dec-01 05:33N 35°27' E 139°39'0 0.1
2016-Dec-01 04:33N 35°27' E 139°39'1 0.6
2016-Dec-01 03:33N 35°27' E 139°39'1 0.6
2016-Dec-01 02:34N 35°27' E 139°39'0 0.0
2016-Dec-01 01:34N 35°27' E 139°39'0 0.0
2016-Dec-01 00:33N 35°27' E 139°39'1 0.1
2016-Nov-30 11:33N 35°28' E 139°40'1 0.8
2016-Nov-30 10:33N 35°27' E 139°39'1 0.6
2016-Nov-30 09:33N 35°27' E 139°39'0 0.0
2016-Nov-30 08:33N 35°27' E 139°39'1 0.6
2016-Nov-30 07:34N 35°27' E 139°39'1 0.6
2016-Nov-30 06:33N 35°27' E 139°39'0 0.1
2016-Nov-30 05:33N 35°27' E 139°39'0 0.4
2016-Nov-30 04:33N 35°27' E 139°39'0 0.1
2016-Nov-30 03:34N 35°27' E 139°39'1 0.6
2016-Nov-30 02:33N 35°27' E 139°39'0 0.0
2016-Nov-30 01:33N 35°27' E 139°39'0 0.0
2016-Nov-30 00:33N 35°27' E 139°39'0 0.0
2016-Nov-29 23:33N 35°27' E 139°39'0 0.0
2016-Nov-29 12:32N 35°27' E 139°39'2 2.4
2016-Nov-29 11:33N 35°28' E 139°41'2 2.2
2016-Nov-29 10:33N 35°27' E 139°39'1 0.6
2016-Nov-29 09:33N 35°27' E 139°39'3 2.9
2016-Nov-29 08:33N 35°28' E 139°42'3 3.0
2016-Nov-29 07:33N 35°27' E 139°39'1 0.5
2016-Nov-29 06:33N 35°27' E 139°39'0 0.1
2016-Nov-29 05:33N 35°27' E 139°39'0 0.2
2016-Nov-29 04:33N 35°27' E 139°39'0 0.4
2016-Nov-29 03:33N 35°27' E 139°39'1 0.5
2016-Nov-29 02:33N 35°27' E 139°39'0 0.0
2016-Nov-29 01:33N 35°27' E 139°39'0 0.0
2016-Nov-29 00:33N 35°27' E 139°39'0 0.0
2016-Nov-28 12:33N 35°27' E 139°39'2 1.6
2016-Nov-28 11:33N 35°28' E 139°40'1 1.1
2016-Nov-28 10:33N 35°27' E 139°39'1 0.7
2016-Nov-28 09:33N 35°27' E 139°39'0 0.0
2016-Nov-28 08:33N 35°27' E 139°39'3 2.9
2016-Nov-28 07:33N 35°27' E 139°43'3 2.9
2016-Nov-28 06:33N 35°27' E 139°39'0 0.1
2016-Nov-28 05:33N 35°27' E 139°39'0 0.1
2016-Nov-28 04:33N 35°27' E 139°39'0 0.4
2016-Nov-28 03:33N 35°27' E 139°39'1 0.7
2016-Nov-28 02:33N 35°27' E 139°39'0 0.0
2016-Nov-28 01:33N 35°27' E 139°39'0 0.0
2016-Nov-28 00:33N 35°27' E 139°39'0 0.0
2016-Nov-27 12:34N 35°27' E 139°39'1 0.9
2016-Nov-27 11:34N 35°28' E 139°39'1 0.5
2016-Nov-27 10:34N 35°27' E 139°39'1 0.5
2016-Nov-27 09:33N 35°27' E 139°39'2 2.1
2016-Nov-27 08:33N 35°28' E 139°41'2 1.9
2016-Nov-27 07:33N 35°27' E 139°39'1 0.5
2016-Nov-27 06:34N 35°27' E 139°39'0 0.1
2016-Nov-27 05:34N 35°27' E 139°39'0 0.1
2016-Nov-27 04:34N 35°27' E 139°39'1 0.5
2016-Nov-27 03:34N 35°27' E 139°39'1 0.5
2016-Nov-27 02:34N 35°27' E 139°39'0 0.0
2016-Nov-27 01:34N 35°27' E 139°39'0 0.0
2016-Nov-27 00:34N 35°27' E 139°39'0 0.0
2016-Nov-26 11:31N 35°27' E 139°39'1 1.5
2016-Nov-26 10:34N 35°28' E 139°40'3 3.1
2016-Nov-26 09:34N 35°25' E 139°42'3 2.5
2016-Nov-26 08:33N 35°27' E 139°39'0 0.0
2016-Nov-26 07:33N 35°27' E 139°39'0 0.0
2016-Nov-26 06:33N 35°27' E 139°39'0 0.1
2016-Nov-26 05:34N 35°27' E 139°39'0 0.1
2016-Nov-26 04:33N 35°27' E 139°39'1 0.5
2016-Nov-26 03:33N 35°27' E 139°39'3 3.1
2016-Nov-26 02:33N 35°27' E 139°43'3 3.0
2016-Nov-26 01:33N 35°28' E 139°39'1 0.8
2016-Nov-26 00:33N 35°27' E 139°39'0 0.0
2016-Nov-25 23:33N 35°27' E 139°39'0 0.0
2016-Nov-25 22:33N 35°27' E 139°39'0 0.0
2016-Nov-25 12:33N 35°27' E 139°39'1 0.8
2016-Nov-25 11:33N 35°28' E 139°39'0 0.4
2016-Nov-25 10:33N 35°27' E 139°39'1 0.6
2016-Nov-25 09:33N 35°27' E 139°39'0 0.0
2016-Nov-25 08:33N 35°27' E 139°39'1 0.5
2016-Nov-25 07:34N 35°27' E 139°39'1 0.5
2016-Nov-25 06:33N 35°27' E 139°39'0 0.0
2016-Nov-25 05:34N 35°27' E 139°39'1 0.9
2016-Nov-25 04:33N 35°28' E 139°40'1 0.9
2016-Nov-25 03:33N 35°27' E 139°39'1 0.5
2016-Nov-25 02:33N 35°27' E 139°39'0 0.0
2016-Nov-25 01:33N 35°27' E 139°39'  

Dump ship's entire track history